createdAt,value
2022-08-20T00:00:00.212Z,0
2022-08-20T00:05:00.189Z,0
2022-08-20T00:10:00.192Z,0
2022-08-20T00:15:00.202Z,0
2022-08-20T00:20:00.207Z,0
2022-08-20T00:25:00.169Z,0
2022-08-20T00:30:00.228Z,0
2022-08-20T00:35:00.183Z,0
2022-08-20T00:40:00.426Z,0
2022-08-20T00:45:00.188Z,0
2022-08-20T00:50:00.185Z,0
2022-08-20T00:55:00.177Z,0
2022-08-20T01:00:00.243Z,0
2022-08-20T01:05:00.175Z,0
2022-08-20T01:10:00.192Z,0
2022-08-20T01:15:00.175Z,0
2022-08-20T01:20:00.182Z,0
2022-08-20T01:25:00.184Z,0
2022-08-20T01:30:00.195Z,0
2022-08-20T01:35:00.184Z,0
2022-08-20T01:40:00.293Z,0
2022-08-20T01:45:00.547Z,0
2022-08-20T01:50:00.194Z,0
2022-08-20T01:55:00.192Z,0
2022-08-20T02:00:00.225Z,0
2022-08-20T02:05:00.185Z,0
2022-08-20T02:10:00.196Z,0
2022-08-20T02:15:00.188Z,0
2022-08-20T02:20:00.194Z,0
2022-08-20T02:25:00.192Z,0
2022-08-20T02:30:00.190Z,0
2022-08-20T02:35:00.176Z,0
2022-08-20T02:40:00.302Z,0
2022-08-20T02:45:00.169Z,0
2022-08-20T02:50:00.200Z,0
2022-08-20T02:55:00.183Z,0
2022-08-20T03:00:00.251Z,0
2022-08-20T03:05:00.192Z,0
2022-08-20T03:10:00.206Z,0
2022-08-20T03:15:00.188Z,0
2022-08-20T03:20:00.192Z,0
2022-08-20T03:25:00.208Z,0
2022-08-20T03:30:00.213Z,0
2022-08-20T03:35:00.218Z,0
2022-08-20T03:40:00.372Z,0
2022-08-20T03:45:00.166Z,0
2022-08-20T03:50:00.195Z,0
2022-08-20T03:55:00.188Z,0
2022-08-20T04:00:00.226Z,2
2022-08-20T04:05:00.196Z,4
2022-08-20T04:10:00.224Z,7
2022-08-20T04:15:00.205Z,20
2022-08-20T04:20:00.193Z,53
2022-08-20T04:25:00.192Z,89
2022-08-20T04:30:00.209Z,105
2022-08-20T04:35:00.193Z,147
2022-08-20T04:40:00.358Z,135
2022-08-20T04:45:00.194Z,192
2022-08-20T04:50:00.240Z,275
2022-08-20T04:55:00.188Z,364
2022-08-20T05:00:00.232Z,364
2022-08-20T05:05:00.204Z,364
2022-08-20T05:10:00.192Z,429
2022-08-20T05:15:00.158Z,501
2022-08-20T05:20:00.207Z,635
2022-08-20T05:25:00.199Z,715
2022-08-20T05:30:00.234Z,886
2022-08-20T05:35:00.185Z,995
2022-08-20T05:40:00.277Z,1292
2022-08-20T05:45:00.162Z,1454
2022-08-20T05:50:00.185Z,772
2022-08-20T05:55:00.147Z,686
2022-08-20T06:00:00.234Z,611
2022-08-20T06:05:00.204Z,887
2022-08-20T06:10:00.204Z,886
2022-08-20T06:15:00.164Z,1635
2022-08-20T06:20:00.203Z,2080
2022-08-20T06:25:00.200Z,2858
2022-08-20T06:30:00.188Z,3766
2022-08-20T06:35:00.191Z,4770
2022-08-20T06:40:00.307Z,4770
2022-08-20T06:45:00.181Z,4096
2022-08-20T06:50:00.234Z,4096
2022-08-20T06:55:00.303Z,5178
2022-08-20T07:00:00.248Z,6808
2022-08-20T07:05:00.219Z,6826
2022-08-20T07:10:00.199Z,6038
2022-08-20T07:15:00.182Z,5816
2022-08-20T07:20:00.200Z,5370
2022-08-20T07:25:00.305Z,5415
2022-08-20T07:30:00.223Z,5111
2022-08-20T07:35:00.193Z,5111
2022-08-20T07:40:00.325Z,6124
2022-08-20T07:45:00.190Z,9047
2022-08-20T07:50:00.201Z,6995
2022-08-20T07:55:00.198Z,6100
2022-08-20T08:00:00.240Z,13788
2022-08-20T08:05:00.176Z,7617
2022-08-20T08:10:00.189Z,7617
2022-08-20T08:15:00.193Z,7617
2022-08-20T08:20:00.219Z,14952
2022-08-20T08:25:00.183Z,12314
2022-08-20T08:30:00.199Z,27868
2022-08-20T08:35:00.175Z,27868
2022-08-20T08:40:00.282Z,32412
2022-08-20T08:45:00.176Z,32412
2022-08-20T08:50:00.241Z,35563
2022-08-20T08:55:00.197Z,34078
2022-08-20T09:00:04.681Z,36366
2022-08-20T09:05:00.205Z,36366
2022-08-20T09:10:00.238Z,36366
2022-08-20T09:15:00.198Z,40813
2022-08-20T09:20:00.189Z,40813
2022-08-20T09:25:00.204Z,44947
2022-08-20T09:30:00.197Z,45867
2022-08-20T09:35:00.195Z,51677
2022-08-20T09:40:00.317Z,20253
2022-08-20T09:45:00.211Z,10728
2022-08-20T09:50:00.213Z,7670
2022-08-20T09:55:00.173Z,5306
2022-08-20T10:00:00.265Z,4723
2022-08-20T10:05:00.201Z,6026
2022-08-20T10:10:00.192Z,60786
2022-08-20T10:15:00.240Z,60730
2022-08-20T10:20:00.220Z,60730
2022-08-20T10:25:00.193Z,17608
2022-08-20T10:30:00.226Z,9559
2022-08-20T10:35:00.175Z,30332
2022-08-20T10:40:00.384Z,66145
2022-08-20T10:45:00.235Z,72144
2022-08-20T10:50:00.242Z,18235
2022-08-20T10:55:00.211Z,16226
2022-08-20T11:00:00.256Z,15631
2022-08-20T11:05:00.191Z,77090
2022-08-20T11:10:00.204Z,77090
2022-08-20T11:15:00.346Z,78145
2022-08-20T11:20:00.210Z,15293
2022-08-20T11:25:00.196Z,19634
2022-08-20T11:30:00.251Z,20003
2022-08-20T11:35:00.377Z,15552
2022-08-20T11:40:00.353Z,14555
2022-08-20T11:45:00.204Z,41390
2022-08-20T11:50:00.197Z,19521
2022-08-20T11:55:00.210Z,22305
2022-08-20T12:00:00.246Z,84528
2022-08-20T12:05:00.208Z,67329
2022-08-20T12:10:00.204Z,54815
2022-08-20T12:15:00.207Z,81171
2022-08-20T12:20:00.328Z,17382
2022-08-20T12:25:00.196Z,11749
2022-08-20T12:30:00.204Z,13677
2022-08-20T12:35:00.216Z,83253
2022-08-20T12:40:00.305Z,83253
2022-08-20T12:45:00.198Z,83253
2022-08-20T12:50:00.229Z,83253
2022-08-20T12:55:00.236Z,82167
2022-08-20T13:00:00.227Z,82167
2022-08-20T13:05:04.978Z,82167
2022-08-20T13:10:00.236Z,13658
2022-08-20T13:15:00.236Z,19566
2022-08-20T13:20:00.213Z,28767
2022-08-20T13:25:00.200Z,52893
2022-08-20T13:30:00.208Z,73097
2022-08-20T13:35:00.191Z,73097
2022-08-20T13:40:00.335Z,73097
2022-08-20T13:45:00.194Z,47654
2022-08-20T13:50:00.223Z,32501
2022-08-20T13:55:00.149Z,64343
2022-08-20T14:00:00.241Z,64923
2022-08-20T14:05:00.162Z,15631
2022-08-20T14:10:00.208Z,10762
2022-08-20T14:15:00.212Z,9574
2022-08-20T14:20:01.571Z,9574
2022-08-20T14:25:00.216Z,8823
2022-08-20T14:30:00.222Z,37359
2022-08-20T14:35:00.178Z,21174
2022-08-20T14:40:00.379Z,39930
2022-08-20T14:45:00.174Z,14545
2022-08-20T14:50:00.172Z,12131
2022-08-20T14:55:00.169Z,10792
2022-08-20T15:00:00.271Z,15435
2022-08-20T15:05:00.165Z,34182
2022-08-20T15:10:00.172Z,48730
2022-08-20T15:15:13.335Z,16854
2022-08-20T15:20:00.175Z,24508
2022-08-20T15:25:00.191Z,37239
2022-08-20T15:30:00.178Z,14565
2022-08-20T15:35:00.181Z,16769
2022-08-20T15:40:00.322Z,34277
2022-08-20T15:45:00.159Z,34277
2022-08-20T15:50:00.414Z,34277
2022-08-20T15:55:00.201Z,34277
2022-08-20T16:00:00.239Z,22187
2022-08-20T16:05:00.181Z,24105
2022-08-20T16:10:00.199Z,9393
2022-08-20T16:15:00.198Z,24992
2022-08-20T16:20:00.203Z,24992
2022-08-20T16:25:00.189Z,19665
2022-08-20T16:30:00.223Z,16928
2022-08-20T16:35:00.189Z,15985
2022-08-20T16:40:00.315Z,8325
2022-08-20T16:45:00.192Z,6331
2022-08-20T16:50:00.216Z,11280
2022-08-20T16:55:00.202Z,6184
2022-08-20T17:00:00.264Z,6984
2022-08-20T17:05:00.482Z,5351
2022-08-20T17:10:00.193Z,5065
2022-08-20T17:20:00.280Z,10683
2022-08-20T17:25:00.199Z,10683
2022-08-20T17:30:00.219Z,5826
2022-08-20T17:35:00.211Z,4600
2022-08-20T17:40:00.328Z,3918
2022-08-20T17:45:00.186Z,3090
2022-08-20T17:50:02.222Z,2875
2022-08-20T17:55:00.160Z,2514
2022-08-20T18:00:02.330Z,2173
2022-08-20T18:05:00.171Z,1988
2022-08-20T18:10:00.185Z,1922
2022-08-20T18:15:00.185Z,1381
2022-08-20T18:20:00.189Z,1381
2022-08-20T18:25:00.193Z,1088
2022-08-20T18:30:00.241Z,858
2022-08-20T18:35:03.797Z,677
2022-08-20T18:40:00.325Z,453
2022-08-20T18:45:00.221Z,324
2022-08-20T18:50:00.234Z,197
2022-08-20T18:55:00.210Z,184
2022-08-20T19:00:00.231Z,115
2022-08-20T19:05:02.405Z,62
2022-08-20T19:10:00.210Z,31
2022-08-20T19:15:00.213Z,14
2022-08-20T19:30:00.213Z,3
2022-08-20T19:35:00.187Z,2
2022-08-20T19:40:00.294Z,0
2022-08-20T19:45:00.191Z,0
2022-08-20T19:50:00.191Z,0
2022-08-20T19:55:03.834Z,0
2022-08-20T20:00:00.290Z,0
2022-08-20T20:05:00.181Z,0
2022-08-20T20:10:00.190Z,0
2022-08-20T20:15:00.205Z,0
2022-08-20T20:20:00.209Z,0
2022-08-20T20:25:00.212Z,0
2022-08-20T20:30:00.191Z,0
2022-08-20T20:35:00.192Z,0
2022-08-20T20:40:00.367Z,0
2022-08-20T20:45:00.174Z,0
2022-08-20T20:50:00.193Z,0
2022-08-20T20:55:00.177Z,0
2022-08-20T21:00:00.235Z,0
2022-08-20T21:05:00.194Z,0
2022-08-20T21:10:00.217Z,0
2022-08-20T21:15:00.152Z,0
2022-08-20T21:20:00.163Z,0
2022-08-20T21:25:00.185Z,0
2022-08-20T21:30:00.207Z,0
2022-08-20T21:35:00.178Z,0
2022-08-20T21:40:00.333Z,0
2022-08-20T21:45:00.176Z,0
2022-08-20T21:50:00.178Z,0
2022-08-20T21:55:00.162Z,0
2022-08-20T22:00:00.251Z,0
2022-08-20T22:05:00.146Z,0
2022-08-20T22:10:00.202Z,0
2022-08-20T22:15:00.153Z,0
2022-08-20T22:20:00.181Z,0
2022-08-20T22:25:00.175Z,0
2022-08-20T22:30:00.172Z,0
2022-08-20T22:35:00.185Z,0
2022-08-20T22:40:00.298Z,0
2022-08-20T22:45:00.154Z,0
2022-08-20T22:50:00.166Z,0
2022-08-20T22:55:00.149Z,0
2022-08-20T23:00:00.198Z,0
2022-08-20T23:05:00.141Z,0
2022-08-20T23:10:00.214Z,0
2022-08-20T23:15:00.274Z,0
2022-08-20T23:20:00.170Z,0
2022-08-20T23:25:00.761Z,0
2022-08-20T23:30:00.176Z,0
2022-08-20T23:35:00.156Z,0
2022-08-20T23:40:00.297Z,0
2022-08-20T23:45:00.149Z,0
2022-08-20T23:50:00.201Z,0
2022-08-20T23:55:00.274Z,0
